PANC/ANC METAR and TAF weather

Enter ICAO airport designator
Station Type Date Time Source
PANC METAR 2024/07/13 02:53 UTC NOAA

PANC 130253Z 14017G34KT 10SM FEW045 SCT060 OVC080 16/07 A2980 RMK AO2 PK WND 15037/0202 RAB06E51 SLP091 P0000 60000 T01560072 56014


Station Type Date Time Source
PANC Decoded METAR 2024/07/13 02:53 UTC NOAA

TED STEVENS ANCHORAGE INTERNATIONAL , AK, United States (PANC) 61-10N 150-02W 48M
Jul 12, 2024 - 10:53 PM EDT / 2024.07.13 0253 UTC
Wind: from the SE (140 degrees) at 20 MPH (17 KT) gusting to 39 MPH (34 KT):0
Visibility: 10 mile(s):0
Sky conditions: overcast
Precipitation last hour: A trace
Temperature: 60.1 F (15.6 C)
Dew Point: 45.0 F (7.2 C)
Relative Humidity: 57%
Pressure (altimeter): 29.8 in. Hg (1009 hPa)
Pressure tendency: 0.04 inches (1.4 hPa) lower than three hours ago
ob: PANC 130253Z 14017G34KT 10SM FEW045 SCT060 OVC080 16/07 A2980 RMK AO2 PK WND 15037/0202 RAB06E51 SLP091 P0000 60000 T01560072 56014
cycle: 3

Station Type Date Time Source
PANC TAF 2024/07/12 21:42 UTC NOAA